sensor_id;sensor_type;location;lat;lon;timestamp;P1;durP1;ratioP1;P2;durP2;ratioP2
15816;SDS011;8009;50.070;8.232;2023-06-26T00:00:28;16.55;;;15.95;;
15816;SDS011;8009;50.070;8.232;2023-06-26T00:02:57;17.08;;;16.48;;
15816;SDS011;8009;50.070;8.232;2023-06-26T00:05:26;15.70;;;15.10;;
15816;SDS011;8009;50.070;8.232;2023-06-26T00:07:57;16.73;;;16.13;;
15816;SDS011;8009;50.070;8.232;2023-06-26T00:10:28;15.80;;;15.20;;
15816;SDS011;8009;50.070;8.232;2023-06-26T00:12:57;15.45;;;14.85;;
15816;SDS011;8009;50.070;8.232;2023-06-26T00:15:26;14.60;;;14.10;;
15816;SDS011;8009;50.070;8.232;2023-06-26T00:17:56;14.63;;;14.13;;
15816;SDS011;8009;50.070;8.232;2023-06-26T00:20:25;14.80;;;14.30;;
15816;SDS011;8009;50.070;8.232;2023-06-26T00:22:53;15.77;;;15.18;;
15816;SDS011;8009;50.070;8.232;2023-06-26T00:25:23;14.65;;;14.15;;
15816;SDS011;8009;50.070;8.232;2023-06-26T00:27:54;15.40;;;14.80;;
15816;SDS011;8009;50.070;8.232;2023-06-26T00:30:23;14.70;;;14.20;;
15816;SDS011;8009;50.070;8.232;2023-06-26T00:32:51;15.18;;;14.57;;
15816;SDS011;8009;50.070;8.232;2023-06-26T00:35:19;14.95;;;14.38;;
15816;SDS011;8009;50.070;8.232;2023-06-26T00:37:48;15.13;;;14.52;;
15816;SDS011;8009;50.070;8.232;2023-06-26T00:40:16;14.77;;;14.27;;
15816;SDS011;8009;50.070;8.232;2023-06-26T00:42:44;15.32;;;14.73;;
15816;SDS011;8009;50.070;8.232;2023-06-26T00:45:15;14.45;;;13.95;;
15816;SDS011;8009;50.070;8.232;2023-06-26T00:47:44;14.95;;;14.35;;
15816;SDS011;8009;50.070;8.232;2023-06-26T00:50:12;14.25;;;13.75;;
15816;SDS011;8009;50.070;8.232;2023-06-26T00:52:42;14.60;;;14.05;;
15816;SDS011;8009;50.070;8.232;2023-06-26T00:55:11;15.20;;;14.60;;
15816;SDS011;8009;50.070;8.232;2023-06-26T00:57:40;14.98;;;14.40;;
15816;SDS011;8009;50.070;8.232;2023-06-26T01:00:11;13.60;;;13.10;;
15816;SDS011;8009;50.070;8.232;2023-06-26T01:02:43;14.55;;;14.05;;
15816;SDS011;8009;50.070;8.232;2023-06-26T01:05:11;14.93;;;14.32;;
15816;SDS011;8009;50.070;8.232;2023-06-26T01:07:46;15.55;;;14.95;;
15816;SDS011;8009;50.070;8.232;2023-06-26T01:10:16;15.40;;;14.80;;
15816;SDS011;8009;50.070;8.232;2023-06-26T01:12:45;16.45;;;15.85;;
15816;SDS011;8009;50.070;8.232;2023-06-26T01:15:13;16.40;;;15.80;;
15816;SDS011;8009;50.070;8.232;2023-06-26T01:17:44;17.00;;;16.40;;
15816;SDS011;8009;50.070;8.232;2023-06-26T01:20:13;16.48;;;15.88;;
15816;SDS011;8009;50.070;8.232;2023-06-26T01:22:45;18.40;;;17.70;;
15816;SDS011;8009;50.070;8.232;2023-06-26T01:25:21;16.67;;;16.08;;
15816;SDS011;8009;50.070;8.232;2023-06-26T01:28:06;17.67;;;16.98;;
15816;SDS011;8009;50.070;8.232;2023-06-26T01:30:37;17.60;;;16.90;;
15816;SDS011;8009;50.070;8.232;2023-06-26T01:33:09;17.00;;;16.40;;
15816;SDS011;8009;50.070;8.232;2023-06-26T01:35:38;18.30;;;17.60;;
15816;SDS011;8009;50.070;8.232;2023-06-26T01:38:14;18.45;;;17.75;;
15816;SDS011;8009;50.070;8.232;2023-06-26T01:40:44;17.25;;;16.65;;
15816;SDS011;8009;50.070;8.232;2023-06-26T01:43:18;15.75;;;15.15;;
15816;SDS011;8009;50.070;8.232;2023-06-26T01:45:53;15.88;;;15.27;;
15816;SDS011;8009;50.070;8.232;2023-06-26T01:48:28;15.23;;;14.63;;
15816;SDS011;8009;50.070;8.232;2023-06-26T01:51:02;15.10;;;14.52;;
15816;SDS011;8009;50.070;8.232;2023-06-26T01:53:32;15.30;;;14.70;;
15816;SDS011;8009;50.070;8.232;2023-06-26T01:56:08;14.32;;;13.82;;
15816;SDS011;8009;50.070;8.232;2023-06-26T01:58:43;15.60;;;15.00;;
15816;SDS011;8009;50.070;8.232;2023-06-26T02:01:14;15.00;;;14.40;;
15816;SDS011;8009;50.070;8.232;2023-06-26T02:03:43;15.63;;;15.02;;
15816;SDS011;8009;50.070;8.232;2023-06-26T02:06:11;14.82;;;14.27;;
15816;SDS011;8009;50.070;8.232;2023-06-26T02:08:40;14.02;;;13.52;;
15816;SDS011;8009;50.070;8.232;2023-06-26T02:11:08;13.95;;;13.45;;
15816;SDS011;8009;50.070;8.232;2023-06-26T02:13:36;14.30;;;13.80;;
15816;SDS011;8009;50.070;8.232;2023-06-26T02:16:07;13.95;;;13.45;;
15816;SDS011;8009;50.070;8.232;2023-06-26T02:18:36;13.43;;;12.93;;
15816;SDS011;8009;50.070;8.232;2023-06-26T02:21:06;13.88;;;13.38;;
15816;SDS011;8009;50.070;8.232;2023-06-26T02:23:35;14.10;;;13.60;;
15816;SDS011;8009;50.070;8.232;2023-06-26T02:26:03;13.98;;;13.48;;
15816;SDS011;8009;50.070;8.232;2023-06-26T02:28:31;13.60;;;13.10;;
15816;SDS011;8009;50.070;8.232;2023-06-26T02:31:00;14.18;;;13.68;;
15816;SDS011;8009;50.070;8.232;2023-06-26T02:33:36;14.50;;;14.00;;
15816;SDS011;8009;50.070;8.232;2023-06-26T02:36:04;14.30;;;13.80;;
15816;SDS011;8009;50.070;8.232;2023-06-26T02:38:33;16.73;;;16.13;;
15816;SDS011;8009;50.070;8.232;2023-06-26T02:41:03;14.38;;;13.88;;
15816;SDS011;8009;50.070;8.232;2023-06-26T02:43:32;14.25;;;13.75;;
15816;SDS011;8009;50.070;8.232;2023-06-26T02:46:00;14.02;;;13.52;;
15816;SDS011;8009;50.070;8.232;2023-06-26T02:48:28;13.45;;;12.95;;
15816;SDS011;8009;50.070;8.232;2023-06-26T02:50:59;14.43;;;13.93;;
15816;SDS011;8009;50.070;8.232;2023-06-26T02:53:27;14.38;;;13.88;;
15816;SDS011;8009;50.070;8.232;2023-06-26T02:55:56;13.52;;;13.02;;
15816;SDS011;8009;50.070;8.232;2023-06-26T02:58:24;14.73;;;14.23;;
15816;SDS011;8009;50.070;8.232;2023-06-26T03:00:52;15.18;;;14.57;;
15816;SDS011;8009;50.070;8.232;2023-06-26T03:03:21;14.93;;;14.35;;
15816;SDS011;8009;50.070;8.232;2023-06-26T03:05:49;15.70;;;15.10;;
15816;SDS011;8009;50.070;8.232;2023-06-26T03:08:20;14.95;;;14.35;;
15816;SDS011;8009;50.070;8.232;2023-06-26T03:10:48;15.50;;;14.90;;
15816;SDS011;8009;50.070;8.232;2023-06-26T03:13:17;14.63;;;14.13;;
15816;SDS011;8009;50.070;8.232;2023-06-26T03:15:45;15.52;;;14.93;;
15816;SDS011;8009;50.070;8.232;2023-06-26T03:18:13;14.23;;;13.73;;
15816;SDS011;8009;50.070;8.232;2023-06-26T03:20:42;15.52;;;14.93;;
15816;SDS011;8009;50.070;8.232;2023-06-26T03:23:10;14.63;;;14.13;;
15816;SDS011;8009;50.070;8.232;2023-06-26T03:25:41;14.23;;;13.73;;
15816;SDS011;8009;50.070;8.232;2023-06-26T03:28:09;14.50;;;14.00;;
15816;SDS011;8009;50.070;8.232;2023-06-26T03:30:38;14.50;;;14.00;;
15816;SDS011;8009;50.070;8.232;2023-06-26T03:33:06;14.88;;;14.35;;
15816;SDS011;8009;50.070;8.232;2023-06-26T03:35:35;14.30;;;13.80;;
15816;SDS011;8009;50.070;8.232;2023-06-26T03:38:03;13.82;;;13.32;;
15816;SDS011;8009;50.070;8.232;2023-06-26T03:40:32;14.18;;;13.68;;
15816;SDS011;8009;50.070;8.232;2023-06-26T03:43:03;14.68;;;14.18;;
15816;SDS011;8009;50.070;8.232;2023-06-26T03:45:31;15.52;;;14.93;;
15816;SDS011;8009;50.070;8.232;2023-06-26T03:48:00;14.52;;;14.02;;
15816;SDS011;8009;50.070;8.232;2023-06-26T03:50:28;14.70;;;14.10;;
15816;SDS011;8009;50.070;8.232;2023-06-26T03:52:56;14.57;;;14.02;;
15816;SDS011;8009;50.070;8.232;2023-06-26T03:55:25;15.23;;;14.63;;
15816;SDS011;8009;50.070;8.232;2023-06-26T03:57:53;15.70;;;15.10;;
15816;SDS011;8009;50.070;8.232;2023-06-26T04:00:24;14.20;;;13.70;;
15816;SDS011;8009;50.070;8.232;2023-06-26T04:02:52;15.55;;;14.95;;
15816;SDS011;8009;50.070;8.232;2023-06-26T04:05:21;15.10;;;14.52;;
15816;SDS011;8009;50.070;8.232;2023-06-26T04:07:50;16.08;;;15.48;;
15816;SDS011;8009;50.070;8.232;2023-06-26T04:10:18;16.20;;;15.60;;
15816;SDS011;8009;50.070;8.232;2023-06-26T04:12:47;17.13;;;16.52;;
15816;SDS011;8009;50.070;8.232;2023-06-26T04:15:16;15.10;;;14.50;;
15816;SDS011;8009;50.070;8.232;2023-06-26T04:17:47;16.27;;;15.68;;
15816;SDS011;8009;50.070;8.232;2023-06-26T04:20:16;15.55;;;14.95;;
15816;SDS011;8009;50.070;8.232;2023-06-26T04:22:44;16.55;;;15.90;;
15816;SDS011;8009;50.070;8.232;2023-06-26T04:25:12;14.60;;;14.10;;
15816;SDS011;8009;50.070;8.232;2023-06-26T04:27:41;15.73;;;15.13;;
15816;SDS011;8009;50.070;8.232;2023-06-26T04:30:09;14.60;;;14.00;;
15816;SDS011;8009;50.070;8.232;2023-06-26T04:32:39;16.25;;;15.65;;
15816;SDS011;8009;50.070;8.232;2023-06-26T04:35:10;14.70;;;14.20;;
15816;SDS011;8009;50.070;8.232;2023-06-26T04:37:38;14.57;;;14.07;;
15816;SDS011;8009;50.070;8.232;2023-06-26T04:40:07;15.10;;;14.50;;
15816;SDS011;8009;50.070;8.232;2023-06-26T04:42:37;14.85;;;14.32;;
15816;SDS011;8009;50.070;8.232;2023-06-26T04:45:06;14.80;;;14.20;;
15816;SDS011;8009;50.070;8.232;2023-06-26T04:47:35;15.52;;;14.93;;
15816;SDS011;8009;50.070;8.232;2023-06-26T04:50:05;14.98;;;14.43;;
15816;SDS011;8009;50.070;8.232;2023-06-26T04:52:37;15.60;;;15.00;;
15816;SDS011;8009;50.070;8.232;2023-06-26T04:55:06;16.58;;;15.98;;
15816;SDS011;8009;50.070;8.232;2023-06-26T04:57:37;16.30;;;15.70;;
15816;SDS011;8009;50.070;8.232;2023-06-26T05:00:05;17.02;;;16.42;;
15816;SDS011;8009;50.070;8.232;2023-06-26T05:02:36;16.63;;;16.02;;
15816;SDS011;8009;50.070;8.232;2023-06-26T05:05:04;15.68;;;15.07;;
15816;SDS011;8009;50.070;8.232;2023-06-26T05:07:33;16.02;;;15.43;;
15816;SDS011;8009;50.070;8.232;2023-06-26T05:10:05;15.93;;;15.32;;
15816;SDS011;8009;50.070;8.232;2023-06-26T05:12:33;14.98;;;14.38;;
15816;SDS011;8009;50.070;8.232;2023-06-26T05:15:02;15.32;;;14.73;;
15816;SDS011;8009;50.070;8.232;2023-06-26T05:17:31;15.57;;;14.98;;
15816;SDS011;8009;50.070;8.232;2023-06-26T05:19:59;15.90;;;15.30;;
15816;SDS011;8009;50.070;8.232;2023-06-26T05:22:28;15.50;;;14.90;;
15816;SDS011;8009;50.070;8.232;2023-06-26T05:24:58;15.73;;;15.13;;
15816;SDS011;8009;50.070;8.232;2023-06-26T05:27:30;14.93;;;14.32;;
15816;SDS011;8009;50.070;8.232;2023-06-26T05:30:00;14.98;;;14.43;;
15816;SDS011;8009;50.070;8.232;2023-06-26T05:32:28;15.38;;;14.77;;
15816;SDS011;8009;50.070;8.232;2023-06-26T05:35:02;14.45;;;13.95;;
15816;SDS011;8009;50.070;8.232;2023-06-26T05:37:33;13.65;;;13.15;;
15816;SDS011;8009;50.070;8.232;2023-06-26T05:40:03;14.88;;;14.27;;
15816;SDS011;8009;50.070;8.232;2023-06-26T05:42:36;14.98;;;14.40;;
15816;SDS011;8009;50.070;8.232;2023-06-26T05:45:05;14.68;;;14.13;;
15816;SDS011;8009;50.070;8.232;2023-06-26T05:47:36;15.52;;;14.93;;
15816;SDS011;8009;50.070;8.232;2023-06-26T05:50:06;14.60;;;14.10;;
15816;SDS011;8009;50.070;8.232;2023-06-26T05:52:36;14.80;;;14.20;;
15816;SDS011;8009;50.070;8.232;2023-06-26T05:55:06;15.27;;;14.68;;
15816;SDS011;8009;50.070;8.232;2023-06-26T05:57:37;15.45;;;14.85;;
15816;SDS011;8009;50.070;8.232;2023-06-26T06:00:08;14.90;;;14.35;;
15816;SDS011;8009;50.070;8.232;2023-06-26T06:02:38;15.10;;;14.40;;
15816;SDS011;8009;50.070;8.232;2023-06-26T06:05:07;14.70;;;14.10;;
15816;SDS011;8009;50.070;8.232;2023-06-26T06:07:39;15.00;;;14.40;;
15816;SDS011;8009;50.070;8.232;2023-06-26T06:10:10;15.48;;;14.88;;
15816;SDS011;8009;50.070;8.232;2023-06-26T06:12:41;15.50;;;14.90;;
15816;SDS011;8009;50.070;8.232;2023-06-26T06:15:09;16.02;;;15.43;;
15816;SDS011;8009;50.070;8.232;2023-06-26T06:17:38;15.30;;;14.70;;
15816;SDS011;8009;50.070;8.232;2023-06-26T06:20:06;14.65;;;14.15;;
15816;SDS011;8009;50.070;8.232;2023-06-26T06:22:35;15.50;;;14.90;;
15816;SDS011;8009;50.070;8.232;2023-06-26T06:25:04;14.88;;;14.27;;
15816;SDS011;8009;50.070;8.232;2023-06-26T06:27:33;15.90;;;15.30;;
15816;SDS011;8009;50.070;8.232;2023-06-26T06:30:04;15.27;;;14.68;;
15816;SDS011;8009;50.070;8.232;2023-06-26T06:32:33;14.43;;;13.93;;
15816;SDS011;8009;50.070;8.232;2023-06-26T06:35:03;14.80;;;14.23;;
15816;SDS011;8009;50.070;8.232;2023-06-26T06:37:34;15.00;;;14.40;;
15816;SDS011;8009;50.070;8.232;2023-06-26T06:40:04;15.60;;;15.00;;
15816;SDS011;8009;50.070;8.232;2023-06-26T06:42:33;14.80;;;14.20;;
15816;SDS011;8009;50.070;8.232;2023-06-26T06:45:06;15.40;;;14.80;;
15816;SDS011;8009;50.070;8.232;2023-06-26T06:47:35;14.55;;;14.05;;
15816;SDS011;8009;50.070;8.232;2023-06-26T06:50:03;15.27;;;14.68;;
15816;SDS011;8009;50.070;8.232;2023-06-26T06:52:36;15.13;;;14.52;;
15816;SDS011;8009;50.070;8.232;2023-06-26T06:55:06;15.07;;;14.48;;
15816;SDS011;8009;50.070;8.232;2023-06-26T06:57:35;14.45;;;13.95;;
15816;SDS011;8009;50.070;8.232;2023-06-26T07:00:08;14.68;;;14.07;;
15816;SDS011;8009;50.070;8.232;2023-06-26T07:02:39;13.95;;;13.45;;
15816;SDS011;8009;50.070;8.232;2023-06-26T07:05:10;14.20;;;13.70;;
15816;SDS011;8009;50.070;8.232;2023-06-26T07:07:39;14.40;;;13.85;;
15816;SDS011;8009;50.070;8.232;2023-06-26T07:10:09;14.95;;;14.35;;
15816;SDS011;8009;50.070;8.232;2023-06-26T07:12:38;15.65;;;15.05;;
15816;SDS011;8009;50.070;8.232;2023-06-26T07:15:11;15.90;;;15.30;;
15816;SDS011;8009;50.070;8.232;2023-06-26T07:17:40;15.65;;;15.05;;
15816;SDS011;8009;50.070;8.232;2023-06-26T07:20:09;16.15;;;15.55;;
15816;SDS011;8009;50.070;8.232;2023-06-26T07:22:40;15.95;;;15.35;;
15816;SDS011;8009;50.070;8.232;2023-06-26T07:25:10;15.63;;;15.02;;
15816;SDS011;8009;50.070;8.232;2023-06-26T07:27:39;15.40;;;14.80;;
15816;SDS011;8009;50.070;8.232;2023-06-26T07:30:14;14.68;;;14.18;;
15816;SDS011;8009;50.070;8.232;2023-06-26T07:32:44;14.60;;;14.10;;
15816;SDS011;8009;50.070;8.232;2023-06-26T07:35:13;13.82;;;13.32;;
15816;SDS011;8009;50.070;8.232;2023-06-26T07:37:41;14.98;;;14.38;;
15816;SDS011;8009;50.070;8.232;2023-06-26T07:40:10;14.77;;;14.23;;
15816;SDS011;8009;50.070;8.232;2023-06-26T07:42:38;15.40;;;14.80;;
15816;SDS011;8009;50.070;8.232;2023-06-26T07:45:08;15.50;;;14.90;;
15816;SDS011;8009;50.070;8.232;2023-06-26T07:47:40;16.00;;;15.40;;
15816;SDS011;8009;50.070;8.232;2023-06-26T07:50:10;15.98;;;15.38;;
15816;SDS011;8009;50.070;8.232;2023-06-26T07:52:40;15.98;;;15.38;;
15816;SDS011;8009;50.070;8.232;2023-06-26T07:55:09;15.20;;;14.60;;
15816;SDS011;8009;50.070;8.232;2023-06-26T07:57:37;14.40;;;13.90;;
15816;SDS011;8009;50.070;8.232;2023-06-26T08:00:06;14.82;;;14.23;;
15816;SDS011;8009;50.070;8.232;2023-06-26T08:02:35;14.73;;;14.13;;
15816;SDS011;8009;50.070;8.232;2023-06-26T08:05:06;14.45;;;13.95;;
15816;SDS011;8009;50.070;8.232;2023-06-26T08:07:35;15.13;;;14.52;;
15816;SDS011;8009;50.070;8.232;2023-06-26T08:10:04;15.30;;;14.70;;
15816;SDS011;8009;50.070;8.232;2023-06-26T08:12:33;19.00;;;18.30;;
15816;SDS011;8009;50.070;8.232;2023-06-26T08:15:02;15.20;;;14.60;;
15816;SDS011;8009;50.070;8.232;2023-06-26T08:17:31;14.52;;;13.93;;
15816;SDS011;8009;50.070;8.232;2023-06-26T08:19:59;15.48;;;14.88;;
15816;SDS011;8009;50.070;8.232;2023-06-26T08:22:30;15.68;;;15.07;;
15816;SDS011;8009;50.070;8.232;2023-06-26T08:24:58;15.40;;;14.80;;
15816;SDS011;8009;50.070;8.232;2023-06-26T08:27:27;15.60;;;15.00;;
15816;SDS011;8009;50.070;8.232;2023-06-26T08:29:57;15.23;;;14.63;;
15816;SDS011;8009;50.070;8.232;2023-06-26T08:32:25;15.10;;;14.50;;
15816;SDS011;8009;50.070;8.232;2023-06-26T08:34:53;15.40;;;14.77;;
15816;SDS011;8009;50.070;8.232;2023-06-26T08:37:22;14.43;;;13.93;;
15816;SDS011;8009;50.070;8.232;2023-06-26T08:39:54;14.00;;;13.50;;
15816;SDS011;8009;50.070;8.232;2023-06-26T08:42:25;14.90;;;14.30;;
15816;SDS011;8009;50.070;8.232;2023-06-26T08:44:55;16.08;;;15.32;;
15816;SDS011;8009;50.070;8.232;2023-06-26T08:47:23;14.35;;;13.85;;
15816;SDS011;8009;50.070;8.232;2023-06-26T08:49:56;14.45;;;13.95;;
15816;SDS011;8009;50.070;8.232;2023-06-26T08:52:35;14.98;;;14.38;;
15816;SDS011;8009;50.070;8.232;2023-06-26T08:55:10;17.40;;;16.70;;
15816;SDS011;8009;50.070;8.232;2023-06-26T08:57:42;17.98;;;17.27;;
15816;SDS011;8009;50.070;8.232;2023-06-26T09:00:11;19.17;;;18.48;;
15816;SDS011;8009;50.070;8.232;2023-06-26T09:02:41;18.67;;;17.88;;
15816;SDS011;8009;50.070;8.232;2023-06-26T09:05:11;19.67;;;18.77;;
15816;SDS011;8009;50.070;8.232;2023-06-26T09:07:39;17.25;;;16.63;;
15816;SDS011;8009;50.070;8.232;2023-06-26T09:10:10;16.45;;;15.85;;
15816;SDS011;8009;50.070;8.232;2023-06-26T09:12:39;15.68;;;15.07;;
15816;SDS011;8009;50.070;8.232;2023-06-26T09:15:07;15.45;;;14.85;;
15816;SDS011;8009;50.070;8.232;2023-06-26T09:17:38;19.20;;;17.98;;
15816;SDS011;8009;50.070;8.232;2023-06-26T09:20:08;24.05;;;22.85;;
15816;SDS011;8009;50.070;8.232;2023-06-26T09:22:40;29.45;;;28.25;;
15816;SDS011;8009;50.070;8.232;2023-06-26T09:25:12;28.25;;;27.15;;
15816;SDS011;8009;50.070;8.232;2023-06-26T09:27:41;35.22;;;33.83;;
15816;SDS011;8009;50.070;8.232;2023-06-26T09:30:11;40.47;;;38.88;;
15816;SDS011;8009;50.070;8.232;2023-06-26T09:32:44;42.38;;;40.67;;
15816;SDS011;8009;50.070;8.232;2023-06-26T09:35:12;41.65;;;40.00;;
15816;SDS011;8009;50.070;8.232;2023-06-26T09:37:41;41.55;;;39.95;;
15816;SDS011;8009;50.070;8.232;2023-06-26T09:40:13;41.92;;;40.28;;
15816;SDS011;8009;50.070;8.232;2023-06-26T09:42:41;37.45;;;35.95;;
15816;SDS011;8009;50.070;8.232;2023-06-26T09:45:17;43.25;;;41.55;;
15816;SDS011;8009;50.070;8.232;2023-06-26T09:47:47;42.35;;;40.65;;
15816;SDS011;8009;50.070;8.232;2023-06-26T09:50:21;34.15;;;32.85;;
15816;SDS011;8009;50.070;8.232;2023-06-26T09:52:52;39.40;;;37.85;;
15816;SDS011;8009;50.070;8.232;2023-06-26T09:55:25;38.72;;;37.22;;
15816;SDS011;8009;50.070;8.232;2023-06-26T09:57:54;43.35;;;41.55;;
15816;SDS011;8009;50.070;8.232;2023-06-26T10:00:27;45.08;;;43.28;;
15816;SDS011;8009;50.070;8.232;2023-06-26T10:02:55;48.70;;;46.75;;
15816;SDS011;8009;50.070;8.232;2023-06-26T10:05:23;43.45;;;41.75;;
15816;SDS011;8009;50.070;8.232;2023-06-26T10:07:52;38.53;;;37.03;;
15816;SDS011;8009;50.070;8.232;2023-06-26T10:10:25;35.22;;;33.83;;
15816;SDS011;8009;50.070;8.232;2023-06-26T10:12:56;28.15;;;27.05;;
15816;SDS011;8009;50.070;8.232;2023-06-26T10:15:28;28.52;;;27.42;;
15816;SDS011;8009;50.070;8.232;2023-06-26T10:17:59;22.10;;;21.27;;
15816;SDS011;8009;50.070;8.232;2023-06-26T10:20:28;17.50;;;16.80;;
15816;SDS011;8009;50.070;8.232;2023-06-26T10:22:57;17.58;;;16.90;;
15816;SDS011;8009;50.070;8.232;2023-06-26T10:25:34;16.23;;;15.63;;
15816;SDS011;8009;50.070;8.232;2023-06-26T10:28:10;17.83;;;17.13;;
15816;SDS011;8009;50.070;8.232;2023-06-26T10:30:40;17.02;;;16.42;;
15816;SDS011;8009;50.070;8.232;2023-06-26T10:33:10;21.67;;;20.87;;
15816;SDS011;8009;50.070;8.232;2023-06-26T10:35:43;15.25;;;14.65;;
15816;SDS011;8009;50.070;8.232;2023-06-26T10:38:12;15.00;;;14.40;;
15816;SDS011;8009;50.070;8.232;2023-06-26T10:40:44;15.02;;;14.43;;
15816;SDS011;8009;50.070;8.232;2023-06-26T10:43:14;14.10;;;13.60;;
15816;SDS011;8009;50.070;8.232;2023-06-26T10:45:44;15.18;;;14.52;;
15816;SDS011;8009;50.070;8.232;2023-06-26T10:48:17;15.00;;;14.40;;
15816;SDS011;8009;50.070;8.232;2023-06-26T10:50:46;16.33;;;15.73;;
15816;SDS011;8009;50.070;8.232;2023-06-26T10:53:22;15.73;;;15.13;;
15816;SDS011;8009;50.070;8.232;2023-06-26T10:56:01;16.73;;;15.82;;
15816;SDS011;8009;50.070;8.232;2023-06-26T10:58:36;17.38;;;16.67;;
15816;SDS011;8009;50.070;8.232;2023-06-26T11:01:19;16.27;;;15.57;;
15816;SDS011;8009;50.070;8.232;2023-06-26T11:03:59;15.73;;;15.02;;
15816;SDS011;8009;50.070;8.232;2023-06-26T11:06:30;15.77;;;15.18;;
15816;SDS011;8009;50.070;8.232;2023-06-26T11:09:00;17.23;;;16.58;;
15816;SDS011;8009;50.070;8.232;2023-06-26T11:14:30;15.98;;;15.38;;
15816;SDS011;8009;50.070;8.232;2023-06-26T11:16:59;15.27;;;14.68;;
15816;SDS011;8009;50.070;8.232;2023-06-26T11:19:30;15.23;;;14.63;;
15816;SDS011;8009;50.070;8.232;2023-06-26T11:21:59;14.77;;;14.27;;
15816;SDS011;8009;50.070;8.232;2023-06-26T11:24:32;15.25;;;14.65;;
15816;SDS011;8009;50.070;8.232;2023-06-26T11:27:04;15.40;;;14.80;;
15816;SDS011;8009;50.070;8.232;2023-06-26T11:29:33;15.45;;;14.85;;
15816;SDS011;8009;50.070;8.232;2023-06-26T11:32:03;14.98;;;14.38;;
15816;SDS011;8009;50.070;8.232;2023-06-26T11:34:33;14.40;;;13.90;;
15816;SDS011;8009;50.070;8.232;2023-06-26T11:37:03;14.82;;;14.23;;
15816;SDS011;8009;50.070;8.232;2023-06-26T11:39:32;14.65;;;14.13;;
15816;SDS011;8009;50.070;8.232;2023-06-26T11:42:04;14.80;;;14.10;;
15816;SDS011;8009;50.070;8.232;2023-06-26T11:44:33;18.15;;;17.45;;
15816;SDS011;8009;50.070;8.232;2023-06-26T11:47:11;17.25;;;16.60;;
15816;SDS011;8009;50.070;8.232;2023-06-26T11:49:41;17.90;;;17.20;;
15816;SDS011;8009;50.070;8.232;2023-06-26T11:52:10;16.48;;;15.88;;
15816;SDS011;8009;50.070;8.232;2023-06-26T11:54:40;16.00;;;15.40;;
15816;SDS011;8009;50.070;8.232;2023-06-26T11:57:12;17.65;;;16.95;;
15816;SDS011;8009;50.070;8.232;2023-06-26T11:59:42;16.02;;;15.43;;
15816;SDS011;8009;50.070;8.232;2023-06-26T12:02:11;14.65;;;14.05;;
15816;SDS011;8009;50.070;8.232;2023-06-26T12:04:41;15.30;;;14.70;;
15816;SDS011;8009;50.070;8.232;2023-06-26T12:07:11;14.70;;;14.07;;
15816;SDS011;8009;50.070;8.232;2023-06-26T12:09:44;15.20;;;14.60;;
15816;SDS011;8009;50.070;8.232;2023-06-26T12:12:16;14.45;;;13.85;;
15816;SDS011;8009;50.070;8.232;2023-06-26T12:14:46;14.95;;;14.35;;
15816;SDS011;8009;50.070;8.232;2023-06-26T12:17:15;14.48;;;13.88;;
15816;SDS011;8009;50.070;8.232;2023-06-26T12:19:44;15.20;;;14.60;;
15816;SDS011;8009;50.070;8.232;2023-06-26T12:22:15;14.65;;;14.05;;
15816;SDS011;8009;50.070;8.232;2023-06-26T12:24:44;14.98;;;14.38;;
15816;SDS011;8009;50.070;8.232;2023-06-26T12:27:17;14.40;;;13.80;;
15816;SDS011;8009;50.070;8.232;2023-06-26T12:29:49;15.32;;;14.73;;
15816;SDS011;8009;50.070;8.232;2023-06-26T12:32:19;15.10;;;14.52;;
15816;SDS011;8009;50.070;8.232;2023-06-26T12:34:51;16.17;;;15.43;;
15816;SDS011;8009;50.070;8.232;2023-06-26T12:37:19;15.40;;;14.80;;
15816;SDS011;8009;50.070;8.232;2023-06-26T12:39:48;15.25;;;14.65;;
15816;SDS011;8009;50.070;8.232;2023-06-26T12:42:21;15.00;;;14.40;;
15816;SDS011;8009;50.070;8.232;2023-06-26T12:44:50;15.63;;;15.02;;
15816;SDS011;8009;50.070;8.232;2023-06-26T12:47:23;15.90;;;15.30;;
15816;SDS011;8009;50.070;8.232;2023-06-26T12:49:53;16.40;;;15.80;;
15816;SDS011;8009;50.070;8.232;2023-06-26T12:52:22;15.70;;;15.10;;
15816;SDS011;8009;50.070;8.232;2023-06-26T12:54:52;16.90;;;16.30;;
15816;SDS011;8009;50.070;8.232;2023-06-26T12:57:23;15.73;;;15.13;;
15816;SDS011;8009;50.070;8.232;2023-06-26T12:59:52;15.70;;;15.10;;
15816;SDS011;8009;50.070;8.232;2023-06-26T13:02:20;15.45;;;14.85;;
15816;SDS011;8009;50.070;8.232;2023-06-26T13:04:49;16.30;;;15.70;;
15816;SDS011;8009;50.070;8.232;2023-06-26T13:07:17;15.82;;;15.23;;
15816;SDS011;8009;50.070;8.232;2023-06-26T13:09:46;16.05;;;15.45;;
15816;SDS011;8009;50.070;8.232;2023-06-26T13:12:15;15.80;;;15.20;;
15816;SDS011;8009;50.070;8.232;2023-06-26T13:14:46;16.77;;;15.98;;
15816;SDS011;8009;50.070;8.232;2023-06-26T13:17:14;16.27;;;15.68;;
15816;SDS011;8009;50.070;8.232;2023-06-26T13:19:43;16.05;;;15.45;;
15816;SDS011;8009;50.070;8.232;2023-06-26T13:22:11;15.48;;;14.88;;
15816;SDS011;8009;50.070;8.232;2023-06-26T13:24:42;33.73;;;30.27;;
15816;SDS011;8009;50.070;8.232;2023-06-26T13:27:11;17.25;;;16.35;;
15816;SDS011;8009;50.070;8.232;2023-06-26T13:29:41;16.15;;;15.45;;
15816;SDS011;8009;50.070;8.232;2023-06-26T13:32:12;15.63;;;15.02;;
15816;SDS011;8009;50.070;8.232;2023-06-26T13:34:40;16.25;;;15.65;;
15816;SDS011;8009;50.070;8.232;2023-06-26T13:37:09;15.80;;;15.20;;
15816;SDS011;8009;50.070;8.232;2023-06-26T13:39:37;15.50;;;14.90;;
15816;SDS011;8009;50.070;8.232;2023-06-26T13:42:06;15.15;;;14.55;;
15816;SDS011;8009;50.070;8.232;2023-06-26T13:44:35;15.43;;;14.82;;
15816;SDS011;8009;50.070;8.232;2023-06-26T13:47:03;15.70;;;15.00;;
15816;SDS011;8009;50.070;8.232;2023-06-26T13:49:34;15.82;;;15.23;;
15816;SDS011;8009;50.070;8.232;2023-06-26T13:52:03;15.45;;;14.85;;
15816;SDS011;8009;50.070;8.232;2023-06-26T13:54:33;15.70;;;15.10;;
15816;SDS011;8009;50.070;8.232;2023-06-26T13:57:04;15.60;;;15.00;;
15816;SDS011;8009;50.070;8.232;2023-06-26T13:59:33;15.90;;;15.30;;
15816;SDS011;8009;50.070;8.232;2023-06-26T14:02:06;16.02;;;15.43;;
15816;SDS011;8009;50.070;8.232;2023-06-26T14:04:39;16.25;;;15.65;;
15816;SDS011;8009;50.070;8.232;2023-06-26T14:07:09;16.13;;;15.50;;
15816;SDS011;8009;50.070;8.232;2023-06-26T14:09:38;15.13;;;14.43;;
15816;SDS011;8009;50.070;8.232;2023-06-26T14:12:06;15.73;;;15.13;;
15816;SDS011;8009;50.070;8.232;2023-06-26T14:14:35;16.33;;;15.73;;
15816;SDS011;8009;50.070;8.232;2023-06-26T14:17:04;15.38;;;14.77;;
15816;SDS011;8009;50.070;8.232;2023-06-26T14:19:34;15.60;;;15.00;;
15816;SDS011;8009;50.070;8.232;2023-06-26T14:22:05;15.55;;;14.95;;
15816;SDS011;8009;50.070;8.232;2023-06-26T14:24:35;15.80;;;15.20;;
15816;SDS011;8009;50.070;8.232;2023-06-26T14:27:03;15.10;;;14.50;;
15816;SDS011;8009;50.070;8.232;2023-06-26T14:29:32;16.17;;;15.57;;
15816;SDS011;8009;50.070;8.232;2023-06-26T14:32:00;22.88;;;21.98;;
15816;SDS011;8009;50.070;8.232;2023-06-26T14:34:29;23.15;;;22.13;;
15816;SDS011;8009;50.070;8.232;2023-06-26T14:36:57;22.35;;;21.45;;
15816;SDS011;8009;50.070;8.232;2023-06-26T14:39:28;21.27;;;20.48;;
15816;SDS011;8009;50.070;8.232;2023-06-26T14:41:56;21.70;;;20.80;;
15816;SDS011;8009;50.070;8.232;2023-06-26T14:44:25;20.00;;;19.20;;
15816;SDS011;8009;50.070;8.232;2023-06-26T14:46:53;18.30;;;17.60;;
15816;SDS011;8009;50.070;8.232;2023-06-26T14:49:21;19.45;;;18.75;;
15816;SDS011;8009;50.070;8.232;2023-06-26T14:51:50;18.00;;;17.30;;